메인 페이지
METAR-TAF:

METAR-TAF

공항 :

샌프란시스코, 캘리포니아, 미국

샌프란시스코 국제공항

위도: 37-37-11N, 경도: 122-21-53W, 고도: 3m

현재 날씨관측

예보는 23분 전, 18:56시(UTC)에 발표되었습니다.
동북동6kt
온도 12°C
습도 71%
기압 1021 hPa
시정: 16.1km
고도 3900ft 상공 구름 많음

METAR: KSFO 191856Z 07006KT 10SM BKN039 12/07 A3014 RMK AO2 SLP205 T01220072

시각: 11:19 (19:19 UTC)

예보

예보는 1 시간 53분 전, 17:26시(UTC)에 발표되었습니다.
예보 대상 시간: 19일 18시부터 20일 24시까지 (UTC)
서북서9kt
시정: 10km
고도 2000ft 상공 구름 조금
고도 20000ft 상공 구름 조금
19일 2200시부터 (UTC)
서북서8kt
시정: 10km
고도 3000ft 상공 구름 보통
약한소나기
20일 0200시부터 (UTC)
서북서11kt
시정: 10km
고도 3500ft 상공 구름 조금
고도 5000ft 상공 구름 보통
20일 1000시부터 (UTC)
서북서9kt
시정: 10km
고도 1200ft 상공 구름 조금
고도 5000ft 상공 구름 보통

TAF: KSFO 191726Z 1918/2024 29009KT P6SM FEW020 FEW200 FM192200 29008KT P6SM -SHRA SCT030 FM200200 29011KT P6SM FEW035 SCT050 FM201000 30009KT P6SM FEW012 SCT050

4,000개 이상의 공항 관측 자료 및 예보 (METAR 및 TAF 보고).

지도상에서 검색 가능한 기상관측소가 노란 점과 빨간 점으로 표시되어 있습니다.

기상관측소 명을 보려면 표시 위로 마우스를 이동하세요.

날씨 관측과 예보를 보려면 클릭하세요.

지도 변경 : 확대하려면 엑스 표시가 있는 녹색 버튼, 축소하려면 빼기 표시가 있는 녹색 버튼, 다음 페이지의 지도를 보려면 녹색 화살표를 클릭하세요.


METAR-TAF: